CYDA

Dawson City Airport

Dawson City, , Canada
METAR CYDA 252200Z VRB04KT 20SM -RA FEW025 BKN039CB BKN070 OVC210 12/06 A2968 RMK SC1CB4AC2CI1 SLP065 DENSITY ALT 1400FT
Observed Flight Rules
May-25 @ 22:00 UTC (37 minutes ago) Visual Flight Rules
Wind Visibility Clouds Conditions
Variable at 4 knots 20 miles
  • Few at 2,500' AGL
  • Broken at 3,900' AGL
  • Broken at 7,000' AGL
  • Overcast at 21,000' AGL
  • Light Rain
Temperatures Readings
Current 12°C / 54°F
Dewpoint 6°C / 43°F
Humidity 67%
Altimeter 29.68" Hg
Pressure 1006.5 hPa
Elevation 369
METAR CYDA 252200Z VRB04KT 20SM -RA FEW025 BKN039CB BKN070 OVC210 12/06 A2968 RMK SC1CB4AC2CI1 SLP065 DENSITY ALT 1400FT
Observed Flight Rules
May-25 @ 22:00 UTC
(37 minutes ago)
VFR
Wind Visibility
Variable at 4 knots 20 miles
Clouds
  • Few at 2,500' AGL
  • Broken at 3,900' AGL
  • Broken at 7,000' AGL
  • Overcast at 21,000' AGL
Conditions
  • Light Rain
Temperature Dewpoint
12°C / 54°F 6°C / 43°F
Humidity Altimeter Pressure
67% 29.68" Hg 1006.5 hPa